Serenada — 9HA3341 — position and weather

sailwx.info

Track history (hours):
 
Tides and Currents Weather Stations Pressure Air Temp Water Temp Dewpoint Dewpoint Depression Visibility Wind Speed Wind Dir Waves Ship Positions

Serenada

Last reported at 2018-Jan-22 06:51 UTC. Time now 2018-Jan-23 08:07 UTC.
Position N 35°58' E 014°49'.

Length 99 m; draft 5.1 m.

Type: Ship. MMSI: 229453000.

Date/timePositionNaut miles runAvg speedWind from/ knotsBaromVisibWave heightAir tempDewpointWater temp
2018-Jan-22 06:51N 35°58' E 014°49'1 3.4
2018-Jan-22 06:27N 35°58' E 014°50'  
2018-Jan-19 18:03N 36°50' E 024°04'0 9.8
2018-Jan-19 18:00N 36°50' E 024°04'5 9.9
2018-Jan-19 17:30N 36°53' E 024°10'510.0
2018-Jan-19 17:00N 36°55' E 024°15'5 9.9
2018-Jan-19 16:30N 36°58' E 024°20'5 9.9
2018-Jan-19 16:00N 37°01' E 024°26'5 9.9
2018-Jan-19 15:30N 37°03' E 024°31'510.0
2018-Jan-19 15:00N 37°06' E 024°36'5 9.6
2018-Jan-19 14:30N 37°09' E 024°40'5 9.6
2018-Jan-19 14:00N 37°12' E 024°45'5 9.8
2018-Jan-19 13:30N 37°16' E 024°50'510.0
2018-Jan-19 13:00N 37°19' E 024°55'510.0
2018-Jan-19 12:30N 37°22' E 024°60'5 9.7
2018-Jan-19 12:00N 37°24' E 025°05'5 9.5
2018-Jan-19 11:31N 37°27' E 025°10'510.0
2018-Jan-19 11:00N 37°30' E 025°15'510.1
2018-Jan-19 10:30N 37°34' E 025°19'510.3
2018-Jan-19 10:01N 37°38' E 025°22'510.2
2018-Jan-19 09:30N 37°43' E 025°25'510.2
2018-Jan-19 09:00N 37°47' E 025°28'510.1
2018-Jan-19 08:30N 37°52' E 025°31'510.1
2018-Jan-19 08:00N 37°56' E 025°35'  
Track history (hours):
 
Tides and Currents Weather Stations Pressure Air Temp Water Temp Dewpoint Dewpoint Depression Visibility Wind Speed Wind Dir Waves Ship Positions

Serenada

Last reported at 2018-Jan-22 06:51 UTC. Time now 2018-Jan-23 08:07 UTC.
Position N 35°58' E 014°49'.

Length 99 m; draft 5.1 m.

Type: Ship. MMSI: 229453000.

Date/timePositionNaut miles runAvg speedWind from/ knotsBaromVisibWave heightAir tempDewpointWater temp
2018-Jan-22 06:51N 35°58' E 014°49'1 3.4
2018-Jan-22 06:27N 35°58' E 014°50'  
2018-Jan-19 18:03N 36°50' E 024°04'0 9.8
2018-Jan-19 18:00N 36°50' E 024°04'5 9.9
2018-Jan-19 17:30N 36°53' E 024°10'510.0
2018-Jan-19 17:00N 36°55' E 024°15'5 9.9
2018-Jan-19 16:30N 36°58' E 024°20'5 9.9
2018-Jan-19 16:00N 37°01' E 024°26'5 9.9
2018-Jan-19 15:30N 37°03' E 024°31'510.0
2018-Jan-19 15:00N 37°06' E 024°36'5 9.6
2018-Jan-19 14:30N 37°09' E 024°40'5 9.6
2018-Jan-19 14:00N 37°12' E 024°45'5 9.8
2018-Jan-19 13:30N 37°16' E 024°50'510.0
2018-Jan-19 13:00N 37°19' E 024°55'510.0
2018-Jan-19 12:30N 37°22' E 024°60'5 9.7
2018-Jan-19 12:00N 37°24' E 025°05'5 9.5
2018-Jan-19 11:31N 37°27' E 025°10'510.0
2018-Jan-19 11:00N 37°30' E 025°15'510.1
2018-Jan-19 10:30N 37°34' E 025°19'510.3
2018-Jan-19 10:01N 37°38' E 025°22'510.2
2018-Jan-19 09:30N 37°43' E 025°25'510.2
2018-Jan-19 09:00N 37°47' E 025°28'510.1
2018-Jan-19 08:30N 37°52' E 025°31'510.1
2018-Jan-19 08:00N 37°56' E 025°35'  

Dump ship's entire track history